Kezdőlap
METAR-TAF:

METAR-TAF

Repülőterek :

Piggs Peak, Szváziföld

földrajzi szélesség: 25-58-04S, földrajzi hosszúság: 31-15-03E, magasság: 1099 m

Jelenlegi meteorológiai megfigyelések

A jelentés 1 órával és 8 perccel ezelõtt készült, 12:00 UTC
Nyugati szél 4 kt
Hőmérséklet 17°C
Páratartalom 77%
Légköri nyomás 1031 hPa

METAR: FDPP 271200Z AUTO 26004KT //// // ////// 17/13 Q1031

Idő: 15:08 (13:08 UTC)


TAF: hiányzik

Meteorológiai megfigyelések és előrejelzések több, mint 4000 repülőtéren (METAR és TAF jelentéseket).

A térképen piros és sárga pontok jelzik az elérhető meteorológiai állomásokat.

Mozgassa az egeret a pont fölött, hogy megjelenjen az állomás neve.

Azután kattintson az időjárási megfigyelések és előrejelzések megtekintéséhez.

A térkép megváltoztatása: kattintson a fekete keresztel jelölt zöld gombra ráközelítéshez, a vonallal jelölt zöld gombra távolításhoz, vagy a zöld nyilakra a szomszédos térképek eléréséhez.


METAR-TAF: